Time;durP1;ratioP1;P1;durP2;ratioP2;P2;SDS_P1;SDS_P2;PMS_P1;PMS_P2;Temp;Humidity;BMP_temperature;BMP_pressure;BME280_temperature;BME280_humidity;BME280_pressure;Samples;Min_cycle;Max_cycle;Signal;HPM_P1;HPM_P2
2020/12/13 00:02:20;;;;;;;18.92;9.00;;;8.30;99.90;;;;;;5043492;28;20134;-36
2020/12/13 00:04:46;;;;;;;17.67;8.13;;;8.30;99.90;;;;;;5035427;28;20053;-39
2020/12/13 00:07:11;;;;;;;25.65;8.55;;;8.20;99.90;;;;;;5040241;28;20029;-38
2020/12/13 00:09:37;;;;;;;19.73;8.65;;;8.20;99.90;;;;;;5053557;28;20037;-37
2020/12/13 00:12:04;;;;;;;23.65;7.60;;;8.20;99.90;;;;;;5053627;28;20494;-40
2020/12/13 00:14:30;;;;;;;22.85;8.85;;;8.20;99.90;;;;;;5053948;28;20390;-40
2020/12/13 00:16:55;;;;;;;22.50;10.07;;;8.20;99.90;;;;;;5054405;28;20043;-37
2020/12/13 00:19:21;;;;;;;19.30;9.00;;;8.20;99.90;;;;;;5053763;28;20033;-37
2020/12/13 00:21:55;;;;;;;22.33;8.73;;;8.20;99.90;;;;;;5035763;28;20017;-38
2020/12/13 00:24:24;;;;;;;24.70;11.20;;;8.20;99.90;;;;;;5035749;28;20048;-39
2020/12/13 00:26:49;;;;;;;24.67;12.05;;;8.20;99.90;;;;;;5053648;28;20029;-41
2020/12/13 00:29:16;;;;;;;24.63;9.73;;;8.20;99.90;;;;;;5018569;28;20048;-38
2020/12/13 00:31:42;;;;;;;21.02;9.88;;;8.10;99.90;;;;;;5054255;28;20029;-38
2020/12/13 00:34:08;;;;;;;18.33;8.20;;;8.10;99.90;;;;;;5035385;28;20033;-38
2020/12/13 00:36:34;;;;;;;20.65;9.77;;;8.10;99.90;;;;;;5054347;28;20029;-37
2020/12/13 00:39:00;;;;;;;19.23;8.73;;;8.10;99.90;;;;;;5052461;28;20045;-37
2020/12/13 00:41:26;;;;;;;21.88;7.95;;;8.10;99.90;;;;;;5035833;28;20470;-37
2020/12/13 00:43:51;;;;;;;16.75;7.30;;;8.10;99.90;;;;;;5053720;28;20120;-38
2020/12/13 00:46:17;;;;;;;21.15;6.57;;;8.10;99.90;;;;;;5053331;28;20112;-37
2020/12/13 00:48:42;;;;;;;15.68;6.70;;;8.00;99.90;;;;;;5052843;28;20029;-38
2020/12/13 00:51:08;;;;;;;17.90;6.47;;;8.00;99.90;;;;;;5052591;28;20039;-37
2020/12/13 00:53:34;;;;;;;19.40;7.15;;;8.00;99.90;;;;;;5053266;28;20037;-37
2020/12/13 00:55:59;;;;;;;21.02;7.78;;;8.00;99.90;;;;;;5053663;28;20452;-37
2020/12/13 00:58:25;;;;;;;20.90;8.27;;;8.00;99.90;;;;;;5036068;28;20082;-38
2020/12/13 01:00:51;;;;;;;24.42;9.23;;;8.00;99.90;;;;;;5052303;28;20091;-37
2020/12/13 01:03:16;;;;;;;25.80;8.93;;;8.00;99.90;;;;;;5053819;28;20081;-37
2020/12/13 01:05:42;;;;;;;26.52;9.30;;;8.00;99.90;;;;;;5052608;28;20100;-37
2020/12/13 01:08:08;;;;;;;22.83;9.30;;;8.00;99.90;;;;;;5053256;28;20029;-37
2020/12/13 01:10:34;;;;;;;30.80;10.70;;;8.00;99.90;;;;;;5052942;28;20052;-37
2020/12/13 01:13:00;;;;;;;22.48;9.50;;;8.00;99.90;;;;;;5035248;28;20470;-37
2020/12/13 01:15:25;;;;;;;27.77;10.05;;;8.00;99.90;;;;;;5053021;28;20036;-37
2020/12/13 01:17:53;;;;;;;24.83;10.07;;;8.00;99.90;;;;;;5035597;28;20048;-37
2020/12/13 01:20:20;;;;;;;29.00;11.13;;;8.00;99.90;;;;;;5051070;28;20490;-37
2020/12/13 01:22:46;;;;;;;26.10;11.02;;;8.00;99.90;;;;;;5052582;28;20091;-37
2020/12/13 01:25:12;;;;;;;27.40;9.15;;;8.10;99.90;;;;;;5052780;28;20474;-36
2020/12/13 01:27:38;;;;;;;19.67;10.43;;;8.00;99.90;;;;;;5052812;28;20025;-37
2020/12/13 01:30:07;;;;;;;25.60;9.75;;;8.00;99.90;;;;;;5034037;28;20041;-37
2020/12/13 01:32:39;;;;;;;28.00;10.55;;;8.00;99.90;;;;;;5052856;28;20394;-37
2020/12/13 01:35:06;;;;;;;29.30;11.57;;;8.00;99.90;;;;;;5052645;28;20032;-40
2020/12/13 01:37:32;;;;;;;25.20;11.05;;;8.00;99.90;;;;;;5051844;28;20040;-37
2020/12/13 01:39:58;;;;;;;30.90;11.10;;;8.00;99.90;;;;;;5052528;28;20045;-37
2020/12/13 01:42:23;;;;;;;24.27;9.80;;;8.00;99.90;;;;;;5052385;28;20029;-39
2020/12/13 01:44:49;;;;;;;29.25;9.95;;;8.00;99.90;;;;;;5052836;28;20028;-37
2020/12/13 01:47:15;;;;;;;27.83;9.55;;;7.90;99.90;;;;;;5034680;28;20433;-37
2020/12/13 01:49:43;;;;;;;29.20;10.38;;;7.90;99.90;;;;;;5051761;28;20033;-37
2020/12/13 01:54:37;;;;;;;27.30;10.35;;;8.00;99.90;;;;;;5052713;28;20028;-38
2020/12/13 01:57:05;;;;;;;25.67;10.02;;;7.90;99.90;;;;;;5051788;28;20395;-38
2020/12/13 01:59:34;;;;;;;42.88;11.32;;;8.00;99.90;;;;;;5051879;28;20040;-38
2020/12/13 02:02:03;;;;;;;22.15;8.98;;;8.00;99.90;;;;;;5051477;28;20532;-37
2020/12/13 02:04:32;;;;;;;23.63;9.68;;;8.00;99.90;;;;;;5042306;28;20041;-38
2020/12/13 02:07:01;;;;;;;26.40;10.15;;;7.90;99.90;;;;;;5031821;28;20037;-37
2020/12/13 02:09:27;;;;;;;30.65;10.43;;;7.90;99.90;;;;;;5039104;28;20359;-38
2020/12/13 02:11:53;;;;;;;32.15;10.75;;;7.90;99.90;;;;;;5036147;28;20049;-37
2020/12/13 02:14:19;;;;;;;31.40;10.32;;;7.90;99.90;;;;;;5035778;28;20456;-38
2020/12/13 02:16:46;;;;;;;25.10;8.68;;;7.90;99.90;;;;;;5034301;28;20064;-36
2020/12/13 02:19:12;;;;;;;29.45;9.43;;;7.90;99.90;;;;;;5029743;28;20112;-39
2020/12/13 02:21:43;;;;;;;25.02;9.38;;;7.90;99.90;;;;;;5038052;28;20033;-37
2020/12/13 02:24:10;;;;;;;28.30;8.48;;;7.80;99.90;;;;;;5031876;28;20041;-37
2020/12/13 02:26:39;;;;;;;33.47;10.73;;;7.90;99.90;;;;;;5031849;28;20040;-38
2020/12/13 02:29:05;;;;;;;27.17;9.70;;;7.90;99.90;;;;;;5012894;28;20030;-37
2020/12/13 02:31:31;;;;;;;26.40;9.50;;;7.80;99.90;;;;;;5043178;28;20055;-37
2020/12/13 02:33:57;;;;;;;30.75;10.70;;;7.80;99.90;;;;;;5034365;28;20161;-37
2020/12/13 02:36:22;;;;;;;24.45;9.45;;;7.80;99.90;;;;;;5037470;28;20116;-36
2020/12/13 02:38:48;;;;;;;24.25;9.40;;;7.80;99.90;;;;;;5037822;28;20120;-36
2020/12/13 02:41:13;;;;;;;20.33;8.90;;;7.80;99.90;;;;;;5048643;28;20029;-37
2020/12/13 02:43:39;;;;;;;27.25;9.23;;;7.90;99.90;;;;;;5046314;28;20034;-38
2020/12/13 02:46:04;;;;;;;33.33;10.40;;;7.80;99.90;;;;;;5032694;28;20072;-37
2020/12/13 02:48:30;;;;;;;23.85;8.52;;;7.80;99.90;;;;;;5049223;28;20089;-38
2020/12/13 02:50:55;;;;;;;17.60;8.20;;;7.80;99.90;;;;;;5028466;28;20489;-37
2020/12/13 02:53:21;;;;;;;23.90;8.88;;;7.90;99.90;;;;;;5042254;28;20112;-38
2020/12/13 02:55:47;;;;;;;22.67;9.80;;;7.90;99.90;;;;;;5014145;28;20045;-37
2020/12/13 02:58:12;;;;;;;22.88;8.63;;;7.80;99.90;;;;;;5034911;28;20025;-37
2020/12/13 03:00:38;;;;;;;20.52;7.80;;;7.80;99.90;;;;;;5037530;28;20041;-37
2020/12/13 03:03:03;;;;;;;21.50;8.43;;;7.80;99.90;;;;;;5037560;28;20039;-40
2020/12/13 03:05:29;;;;;;;28.63;8.30;;;7.90;99.90;;;;;;5036528;28;20375;-38
2020/12/13 03:07:54;;;;;;;23.08;8.27;;;7.90;99.90;;;;;;5037551;28;20041;-38
2020/12/13 03:10:20;;;;;;;25.23;8.27;;;7.80;99.90;;;;;;5036160;28;20041;-38
2020/12/13 03:12:46;;;;;;;18.77;9.05;;;7.80;99.90;;;;;;5042387;28;20032;-36
2020/12/13 03:15:11;;;;;;;21.30;7.75;;;7.80;99.90;;;;;;5035160;28;20022;-37
2020/12/13 03:17:37;;;;;;;20.45;8.07;;;7.80;99.90;;;;;;5040315;28;20359;-37
2020/12/13 03:20:03;;;;;;;33.75;10.38;;;7.80;99.90;;;;;;5015822;28;20100;-35
2020/12/13 03:22:29;;;;;;;18.67;8.00;;;7.80;99.90;;;;;;5034161;28;20075;-37
2020/12/13 03:24:54;;;;;;;21.10;7.85;;;7.80;99.90;;;;;;5034330;28;20116;-36
2020/12/13 03:27:24;;;;;;;25.60;6.97;;;7.80;99.90;;;;;;5036639;28;20101;-36
2020/12/13 03:29:50;;;;;;;24.67;7.03;;;7.80;99.90;;;;;;5031380;28;20120;-37
2020/12/13 03:32:16;;;;;;;17.52;6.38;;;7.80;99.90;;;;;;5034214;28;20113;-37
2020/12/13 03:34:41;;;;;;;19.35;6.00;;;7.80;99.90;;;;;;5014483;28;20482;-37
2020/12/13 03:37:07;;;;;;;19.67;6.00;;;7.80;99.90;;;;;;5034266;28;20025;-37
2020/12/13 03:39:33;;;;;;;20.92;6.47;;;7.70;99.90;;;;;;5032640;28;20038;-37
2020/12/13 03:41:58;;;;;;;18.80;5.10;;;7.80;99.90;;;;;;5047458;28;20041;-37
2020/12/13 03:44:24;;;;;;;20.10;4.45;;;7.70;99.90;;;;;;5052143;28;20039;-37
2020/12/13 03:46:50;;;;;;;27.20;6.72;;;7.70;99.90;;;;;;5039046;28;20021;-36
2020/12/13 03:49:15;;;;;;;18.70;4.28;;;7.80;99.90;;;;;;5037953;28;20033;-37
2020/12/13 03:51:41;;;;;;;16.73;5.10;;;7.80;99.90;;;;;;5034894;28;20029;-37
2020/12/13 03:54:06;;;;;;;16.50;5.25;;;7.80;99.90;;;;;;5043784;28;20116;-37
2020/12/13 03:56:32;;;;;;;22.67;4.70;;;7.80;99.90;;;;;;5031475;28;20040;-37
2020/12/13 03:58:57;;;;;;;12.05;4.85;;;7.80;99.90;;;;;;5039907;28;20025;-38
2020/12/13 04:01:23;;;;;;;16.88;4.25;;;7.80;99.90;;;;;;5044906;28;20226;-37
2020/12/13 04:03:49;;;;;;;11.95;4.20;;;7.80;99.90;;;;;;5028067;28;20041;-36
2020/12/13 04:06:14;;;;;;;15.77;4.57;;;7.80;99.90;;;;;;5034542;28;20414;-38
2020/12/13 04:08:40;;;;;;;14.88;4.45;;;7.80;99.90;;;;;;5033641;28;20025;-39
2020/12/13 04:11:05;;;;;;;16.30;3.72;;;7.80;99.90;;;;;;5034464;28;20045;-37
2020/12/13 04:13:31;;;;;;;15.05;5.43;;;7.70;99.90;;;;;;5033913;28;20433;-37
2020/12/13 04:15:56;;;;;;;17.23;4.70;;;7.70;99.90;;;;;;5035061;28;20040;-37
2020/12/13 04:18:22;;;;;;;17.70;4.78;;;7.70;99.90;;;;;;5033947;28;20049;-36
2020/12/13 04:20:48;;;;;;;25.42;6.05;;;7.70;99.90;;;;;;5033476;28;20033;-37
2020/12/13 04:23:13;;;;;;;18.58;3.75;;;7.70;99.90;;;;;;5032271;28;20040;-37
2020/12/13 04:25:39;;;;;;;14.18;3.80;;;7.70;99.90;;;;;;5034568;28;20528;-40
2020/12/13 04:28:04;;;;;;;19.25;4.68;;;7.60;99.90;;;;;;5033757;28;20025;-37
2020/12/13 04:30:30;;;;;;;18.23;3.30;;;7.60;99.90;;;;;;5034185;28;20037;-39
2020/12/13 04:32:55;;;;;;;11.88;3.78;;;7.50;99.90;;;;;;5033750;28;20037;-37
2020/12/13 04:35:21;;;;;;;23.38;3.88;;;7.50;99.90;;;;;;5033199;28;20481;-36
2020/12/13 04:37:46;;;;;;;20.17;3.78;;;7.40;99.90;;;;;;5032283;28;20025;-37
2020/12/13 04:40:12;;;;;;;13.93;3.92;;;7.30;99.90;;;;;;5034210;28;20099;-37
2020/12/13 04:42:38;;;;;;;18.38;3.47;;;7.30;99.90;;;;;;5033989;28;20036;-38
2020/12/13 04:45:08;;;;;;;13.55;3.67;;;7.30;99.90;;;;;;5033055;28;20493;-38
2020/12/13 04:47:41;;;;;;;18.58;3.42;;;7.30;99.90;;;;;;5033837;28;20037;-37
2020/12/13 04:50:06;;;;;;;14.40;2.90;;;7.30;99.90;;;;;;5033087;28;20033;-37
2020/12/13 04:52:33;;;;;;;16.35;3.05;;;7.20;99.90;;;;;;5047077;28;20045;-37
2020/12/13 04:54:59;;;;;;;15.25;3.47;;;7.30;99.90;;;;;;5033716;28;20041;-37
2020/12/13 04:57:25;;;;;;;12.73;3.00;;;7.20;99.90;;;;;;5033593;28;20033;-38
2020/12/13 04:59:51;;;;;;;8.50;2.95;;;7.20;99.90;;;;;;5033274;28;20037;-38
2020/12/13 05:02:17;;;;;;;13.10;3.60;;;7.20;99.90;;;;;;5033921;28;20359;-37
2020/12/13 05:04:43;;;;;;;12.85;3.08;;;7.20;99.90;;;;;;5035085;28;20045;-37
2020/12/13 05:07:09;;;;;;;20.00;6.18;;;7.10;99.90;;;;;;5035759;28;20442;-37
2020/12/13 05:09:37;;;;;;;13.40;2.95;;;7.10;99.90;;;;;;5033096;28;20038;-37
2020/12/13 05:12:03;;;;;;;9.85;2.88;;;7.10;99.90;;;;;;5037015;28;20064;-38
2020/12/13 05:14:28;;;;;;;23.95;3.60;;;7.00;99.90;;;;;;5037805;28;20501;-37
2020/12/13 05:17:08;;;;;;;8.73;2.85;;;7.00;99.90;;;;;;5050388;28;20788;-37
2020/12/13 05:19:33;;;;;;;12.88;3.55;;;6.90;99.90;;;;;;5036368;28;20120;-37
2020/12/13 05:22:01;;;;;;;11.50;3.00;;;6.90;99.90;;;;;;5035455;28;20117;-38
2020/12/13 05:24:27;;;;;;;18.65;3.58;;;6.80;99.90;;;;;;5021120;28;20076;-45
2020/12/13 05:27:23;;;;;;;13.70;2.67;;;6.80;99.90;;;;;;5039864;28;20055;-41
2020/12/13 05:29:51;;;;;;;20.85;3.30;;;6.80;99.90;;;;;;4994452;28;20399;-40
2020/12/13 05:32:21;;;;;;;19.73;3.67;;;6.70;99.90;;;;;;4992906;28;20109;-43
2020/12/13 05:34:49;;;;;;;14.80;3.45;;;6.60;99.90;;;;;;4989187;28;20073;-42
2020/12/13 05:37:16;;;;;;;23.80;4.78;;;6.50;99.90;;;;;;4995095;28;20036;-45
2020/12/13 05:39:52;;;;;;;11.88;2.95;;;6.50;99.90;;;;;;5002281;28;20046;-42
2020/12/13 05:42:32;;;;;;;11.25;3.03;;;6.40;99.90;;;;;;4993392;28;20031;-42
2020/12/13 05:48:07;;;;;;;21.45;4.03;;;6.30;99.90;;;;;;5005486;28;20121;-41
2020/12/13 05:53:14;;;;;;;14.70;4.05;;;6.20;99.90;;;;;;4994334;28;20046;-37
2020/12/13 05:55:41;;;;;;;13.15;3.08;;;6.20;99.90;;;;;;5003743;28;20053;-40
2020/12/13 05:58:07;;;;;;;16.15;3.65;;;6.20;99.90;;;;;;4998066;28;20058;-42
2020/12/13 06:00:33;;;;;;;11.07;3.90;;;6.10;99.90;;;;;;5006965;28;20111;-41
2020/12/13 06:02:59;;;;;;;16.17;3.75;;;6.10;99.90;;;;;;4994869;28;20067;-39
2020/12/13 06:05:27;;;;;;;16.27;4.78;;;6.00;99.90;;;;;;5007968;28;20438;-42
2020/12/13 06:07:57;;;;;;;17.65;5.18;;;6.00;99.90;;;;;;5052055;28;20029;-39
2020/12/13 06:10:25;;;;;;;15.43;5.43;;;6.00;99.90;;;;;;5051581;28;20068;-42
2020/12/13 06:13:02;;;;;;;20.33;5.95;;;6.00;99.90;;;;;;5052149;28;20035;-40
2020/12/13 06:15:30;;;;;;;14.80;5.55;;;5.90;99.90;;;;;;5051329;28;20025;-44
2020/12/13 06:17:57;;;;;;;17.67;5.60;;;5.90;99.90;;;;;;5034676;28;20104;-39
2020/12/13 06:20:23;;;;;;;18.50;5.82;;;5.80;99.90;;;;;;5050562;28;20033;-39
2020/12/13 06:22:51;;;;;;;21.17;7.43;;;5.70;99.90;;;;;;5032899;28;20037;-39
2020/12/13 06:25:18;;;;;;;15.43;6.07;;;5.70;99.90;;;;;;5051979;28;20029;-38
2020/12/13 06:27:44;;;;;;;21.42;6.47;;;5.60;99.90;;;;;;5034254;28;20381;-39
2020/12/13 06:30:10;;;;;;;14.35;5.88;;;5.60;99.90;;;;;;5052047;28;20039;-38
2020/12/13 06:32:43;;;;;;;16.00;5.43;;;5.60;99.90;;;;;;5051445;28;20025;-38
2020/12/13 06:35:09;;;;;;;18.05;6.40;;;5.60;99.90;;;;;;5051533;28;20033;-41
2020/12/13 06:37:37;;;;;;;16.50;6.45;;;5.60;99.90;;;;;;5050681;28;20107;-38
2020/12/13 06:40:15;;;;;;;15.07;6.93;;;5.60;99.90;;;;;;5051571;28;20106;-37
2020/12/13 06:42:44;;;;;;;22.40;6.90;;;5.60;99.90;;;;;;5051941;28;20036;-38
2020/12/13 06:45:14;;;;;;;15.68;6.53;;;5.60;99.90;;;;;;5051490;28;20112;-37
2020/12/13 06:47:44;;;;;;;19.20;6.63;;;5.60;99.90;;;;;;5052081;28;20061;-39
2020/12/13 06:50:23;;;;;;;20.65;6.35;;;5.50;99.90;;;;;;5050377;28;20063;-39
2020/12/13 06:52:51;;;;;;;23.98;6.95;;;5.40;99.90;;;;;;5051353;28;20079;-39
2020/12/13 06:55:17;;;;;;;18.45;6.15;;;5.40;99.90;;;;;;5051508;28;20119;-40
2020/12/13 06:57:46;;;;;;;18.35;5.93;;;5.40;99.90;;;;;;5051861;28;20036;-40
2020/12/13 07:00:12;;;;;;;21.48;7.65;;;5.50;99.90;;;;;;5050688;28;20094;-38
2020/12/13 07:02:48;;;;;;;16.58;7.28;;;5.40;99.90;;;;;;5044484;28;20037;-38
2020/12/13 07:05:14;;;;;;;21.92;8.25;;;5.30;99.90;;;;;;5051624;28;20060;-37
2020/12/13 07:07:40;;;;;;;21.10;7.75;;;5.30;99.90;;;;;;5020155;28;20490;-40
2020/12/13 07:10:09;;;;;;;20.15;8.05;;;5.30;99.90;;;;;;5031230;28;20410;-42
2020/12/13 07:12:35;;;;;;;21.95;8.35;;;5.30;99.90;;;;;;5031495;28;20033;-39
2020/12/13 07:15:10;;;;;;;19.38;8.60;;;5.30;99.90;;;;;;5034034;28;20021;-39
2020/12/13 07:17:37;;;;;;;18.48;8.00;;;5.20;99.90;;;;;;5035723;28;20036;-40
2020/12/13 07:20:03;;;;;;;18.35;7.47;;;5.20;99.90;;;;;;5034997;28;20099;-40
2020/12/13 07:22:35;;;;;;;20.17;7.53;;;5.20;99.90;;;;;;5017020;28;20402;-38
2020/12/13 07:25:00;;;;;;;22.77;9.20;;;5.10;99.90;;;;;;5035636;28;20034;-41
2020/12/13 07:27:27;;;;;;;26.20;8.45;;;5.10;99.90;;;;;;5035322;28;20485;-38
2020/12/13 07:29:55;;;;;;;16.73;7.90;;;5.10;99.90;;;;;;5032854;28;20402;-43
2020/12/13 07:32:22;;;;;;;19.88;7.97;;;5.10;99.90;;;;;;5035413;28;20030;-37
2020/12/13 07:34:48;;;;;;;20.90;7.25;;;5.10;99.90;;;;;;5035210;28;20458;-39
2020/12/13 07:37:15;;;;;;;21.88;7.43;;;5.00;99.90;;;;;;5000574;28;20044;-38
2020/12/13 07:39:41;;;;;;;13.93;7.65;;;5.00;99.90;;;;;;5034739;28;20037;-39
2020/12/13 07:42:07;;;;;;;21.23;6.75;;;5.00;99.90;;;;;;5035022;28;20035;-45
2020/12/13 07:44:33;;;;;;;22.23;8.98;;;4.90;99.90;;;;;;5034771;28;20033;-38
2020/12/13 07:46:58;;;;;;;20.92;7.10;;;4.90;99.90;;;;;;5018694;28;20037;-38
2020/12/13 07:49:25;;;;;;;20.15;7.45;;;5.00;99.90;;;;;;5034468;28;20025;-42
2020/12/13 07:51:53;;;;;;;14.95;6.85;;;5.00;99.90;;;;;;5034605;28;20112;-40
2020/12/13 07:54:26;;;;;;;23.50;7.47;;;4.90;99.90;;;;;;5032173;28;20406;-44
2020/12/13 07:57:16;;;;;;;34.35;11.40;;;4.90;99.90;;;;;;5030641;28;20034;-45
2020/12/13 07:59:42;;;;;;;24.33;8.00;;;4.90;99.90;;;;;;5045614;28;20124;-36
2020/12/13 08:02:11;;;;;;;21.40;8.70;;;4.90;99.90;;;;;;5017743;28;20049;-41
2020/12/13 08:04:39;;;;;;;20.17;7.57;;;4.90;99.90;;;;;;5038932;28;20122;-41
2020/12/13 08:07:10;;;;;;;15.57;6.15;;;4.90;99.90;;;;;;5058662;28;20463;-38
2020/12/13 08:09:38;;;;;;;18.55;7.18;;;4.80;99.90;;;;;;5062101;28;20037;-39
2020/12/13 08:12:05;;;;;;;19.85;7.32;;;4.90;99.90;;;;;;5032812;28;20482;-37
2020/12/13 08:14:32;;;;;;;22.90;8.07;;;4.90;99.90;;;;;;5038196;28;20036;-44
2020/12/13 08:16:58;;;;;;;18.17;6.15;;;4.90;99.90;;;;;;5036439;28;20047;-37
2020/12/13 08:19:29;;;;;;;17.33;7.10;;;4.90;99.90;;;;;;5050629;28;20041;-38
2020/12/13 08:22:02;;;;;;;15.02;6.13;;;4.90;99.90;;;;;;5053795;28;20084;-38
2020/12/13 08:24:31;;;;;;;20.48;7.47;;;4.90;99.90;;;;;;5052143;28;20025;-38
2020/12/13 08:26:59;;;;;;;15.93;5.72;;;4.90;99.90;;;;;;5054817;28;20081;-37
2020/12/13 08:29:25;;;;;;;16.10;7.30;;;4.90;99.90;;;;;;5058610;28;20032;-41
2020/12/13 08:31:53;;;;;;;13.88;5.97;;;4.90;99.90;;;;;;5057547;28;20039;-38
2020/12/13 08:34:24;;;;;;;17.20;6.18;;;4.90;99.90;;;;;;5056931;28;20033;-38
2020/12/13 08:36:55;;;;;;;12.98;5.35;;;4.90;99.90;;;;;;5056701;28;20466;-38
2020/12/13 08:39:34;;;;;;;24.55;6.30;;;4.90;99.90;;;;;;5044911;28;20400;-38
2020/12/13 08:42:02;;;;;;;19.70;6.25;;;4.90;99.90;;;;;;5050782;28;20112;-38
2020/12/13 08:44:40;;;;;;;22.75;6.05;;;4.90;99.90;;;;;;5035264;28;20027;-37
2020/12/13 08:47:08;;;;;;;16.90;6.47;;;4.90;99.90;;;;;;5034618;28;20026;-38
2020/12/13 08:49:35;;;;;;;19.42;6.03;;;4.90;99.90;;;;;;5036784;28;20029;-40
2020/12/13 08:52:19;;;;;;;25.83;6.45;;;4.90;99.90;;;;;;5040099;28;20481;-37
2020/12/13 08:54:55;;;;;;;21.08;6.80;;;5.00;99.90;;;;;;5035937;28;20040;-37
2020/12/13 08:57:35;;;;;;;21.42;6.05;;;5.00;99.90;;;;;;5040710;28;20021;-38
2020/12/13 09:00:10;;;;;;;18.33;6.47;;;5.00;99.90;;;;;;5036591;28;20099;-39
2020/12/13 09:02:36;;;;;;;22.73;5.82;;;5.00;99.90;;;;;;5051217;28;20355;-39
2020/12/13 09:05:04;;;;;;;20.80;6.30;;;5.10;99.90;;;;;;5034393;28;20501;-38
2020/12/13 09:07:33;;;;;;;20.95;6.95;;;5.10;99.90;;;;;;5039412;28;20029;-37
2020/12/13 09:10:10;;;;;;;17.75;4.07;;;5.20;99.90;;;;;;5053629;28;20073;-37
2020/12/13 09:12:38;;;;;;;22.77;6.20;;;5.20;99.90;;;;;;5035156;28;20037;-37
2020/12/13 09:15:19;;;;;;;20.58;5.95;;;5.20;99.90;;;;;;5050020;28;20103;-39
2020/12/13 09:17:58;;;;;;;16.50;5.40;;;5.30;99.90;;;;;;5034686;28;20532;-38
2020/12/13 09:20:28;;;;;;;19.33;6.07;;;5.30;99.90;;;;;;5043056;28;20037;-40
2020/12/13 09:23:18;;;;;;;15.88;5.70;;;5.40;99.90;;;;;;5044009;28;20025;-37
2020/12/13 09:25:46;;;;;;;17.67;5.20;;;5.40;99.90;;;;;;5046020;28;20021;-41
2020/12/13 09:28:13;;;;;;;17.08;7.25;;;5.50;99.90;;;;;;5049780;28;20029;-38
2020/12/13 09:30:40;;;;;;;15.45;7.35;;;5.50;99.90;;;;;;5053543;28;20037;-38
2020/12/13 09:33:06;;;;;;;15.05;5.38;;;5.50;99.90;;;;;;5041540;28;20382;-38
2020/12/13 09:35:32;;;;;;;18.65;6.32;;;5.60;99.90;;;;;;5047975;28;20167;-37
2020/12/13 09:38:02;;;;;;;15.90;5.95;;;5.60;99.90;;;;;;5045036;28;20036;-38
2020/12/13 09:40:27;;;;;;;14.90;4.85;;;5.60;99.90;;;;;;5031159;28;20098;-38
2020/12/13 09:42:55;;;;;;;18.17;6.47;;;5.60;99.90;;;;;;5052071;28;20440;-37
2020/12/13 09:45:24;;;;;;;14.45;6.20;;;5.60;99.90;;;;;;5049881;28;20143;-41
2020/12/13 09:47:49;;;;;;;16.17;5.45;;;5.60;99.90;;;;;;5047930;28;20040;-37
2020/12/13 09:50:17;;;;;;;17.90;6.03;;;5.60;99.90;;;;;;5044484;28;20037;-40
2020/12/13 09:52:43;;;;;;;19.40;6.15;;;5.60;99.90;;;;;;5051549;28;20028;-37
2020/12/13 09:55:09;;;;;;;19.48;6.05;;;5.60;99.90;;;;;;5041210;28;20373;-38
2020/12/13 09:57:34;;;;;;;16.13;5.65;;;5.70;99.90;;;;;;5031207;28;20037;-38
2020/12/13 10:00:00;;;;;;;25.08;5.65;;;5.70;99.90;;;;;;5043691;28;20045;-38
2020/12/13 10:02:25;;;;;;;20.45;6.32;;;5.60;99.90;;;;;;5037115;28;20531;-37
2020/12/13 10:04:51;;;;;;;17.60;5.82;;;5.60;99.90;;;;;;5038127;28;20539;-40
2020/12/13 10:16:35;;;;;;;22.67;7.07;;;5.80;99.90;;;;;;5055733;23;20477;-38
2020/12/13 10:21:32;;;;;;;15.55;5.50;;;5.80;99.90;;;;;;5014767;28;20057;-37
2020/12/13 10:27:20;;;;;;;19.00;5.47;;;5.90;99.90;;;;;;5062242;22;20534;-38
2020/12/13 10:29:45;;;;;;;17.98;5.93;;;6.00;99.90;;;;;;5074081;28;20024;-37
2020/12/13 10:32:11;;;;;;;17.10;4.40;;;6.00;99.90;;;;;;5051523;28;20395;-38
2020/12/13 10:34:36;;;;;;;15.77;5.30;;;6.00;99.90;;;;;;5070139;28;20028;-36
2020/12/13 10:37:05;;;;;;;19.15;5.95;;;6.00;99.90;;;;;;5070755;28;20453;-38
2020/12/13 10:39:31;;;;;;;16.73;5.22;;;6.10;99.90;;;;;;5067841;28;20028;-38
2020/12/13 10:41:57;;;;;;;22.10;5.63;;;6.00;99.90;;;;;;5069719;28;20047;-38
2020/12/13 10:44:53;;;;;;;22.98;6.30;;;6.10;99.90;;;;;;5067602;28;20036;-38
2020/12/13 10:50:41;;;;;;;18.33;6.35;;;6.00;99.90;;;;;;5064382;28;20490;-37
2020/12/13 10:53:07;;;;;;;18.23;7.57;;;6.10;99.90;;;;;;5068589;28;20123;-37
2020/12/13 10:56:11;;;;;;;18.92;5.88;;;6.10;99.90;;;;;;5068148;28;20234;-36
2020/12/13 10:58:41;;;;;;;20.73;5.85;;;6.20;99.90;;;;;;5080253;22;20139;-36
2020/12/13 11:01:08;;;;;;;19.80;7.45;;;6.20;99.90;;;;;;5050122;28;20436;-36
2020/12/13 11:03:34;;;;;;;20.38;8.25;;;6.20;99.90;;;;;;5070814;28;20032;-36
2020/12/13 11:06:00;;;;;;;14.52;6.00;;;6.30;99.90;;;;;;5060917;28;20045;-37
2020/12/13 11:08:26;;;;;;;12.02;5.70;;;6.30;99.90;;;;;;5068930;28;20040;-38
2020/12/13 11:10:52;;;;;;;20.90;7.53;;;6.30;99.90;;;;;;5071129;28;20024;-37
2020/12/13 11:13:18;;;;;;;23.73;8.45;;;6.40;99.90;;;;;;5070269;28;20479;-38
2020/12/13 11:15:45;;;;;;;15.48;6.20;;;6.40;99.90;;;;;;5069764;28;20033;-38
2020/12/13 11:18:11;;;;;;;4.32;2.08;;;6.50;99.90;;;;;;5068336;28;20119;-38
2020/12/13 11:20:37;;;;;;;21.98;5.60;;;6.60;99.90;;;;;;5067659;28;20085;-36
2020/12/13 11:23:03;;;;;;;12.50;4.65;;;6.60;99.90;;;;;;5064907;28;20032;-38
2020/12/13 11:25:28;;;;;;;19.40;6.18;;;6.50;99.90;;;;;;5052263;28;20462;-38
2020/12/13 11:38:10;;;;;;;20.83;6.03;;;6.50;99.90;;;;;;5075186;23;20177;-37
2020/12/13 11:43:58;;;;;;;18.15;5.70;;;6.50;99.90;;;;;;5034521;28;20035;-39
2020/12/13 12:03:15;;;;;;;13.68;4.90;;;6.60;99.90;;;;;;5072282;28;20609;-37
2020/12/13 12:05:41;;;;;;;20.98;6.53;;;6.50;99.90;;;;;;5072735;28;20154;-39
2020/12/13 12:08:07;;;;;;;15.63;5.80;;;6.60;99.90;;;;;;5070512;28;20107;-37
2020/12/13 12:10:32;;;;;;;18.35;5.95;;;6.60;99.90;;;;;;5071932;28;20561;-38
2020/12/13 12:12:58;;;;;;;16.27;5.57;;;6.60;99.90;;;;;;5054538;28;20281;-37
2020/12/13 12:15:24;;;;;;;11.30;3.50;;;6.60;99.90;;;;;;5054344;28;20039;-36
2020/12/13 12:17:50;;;;;;;20.20;6.35;;;6.60;99.90;;;;;;5055085;28;20453;-37
2020/12/13 12:20:19;;;;;;;10.63;3.53;;;6.60;99.90;;;;;;5072224;28;20515;-38
2020/12/13 12:22:45;;;;;;;17.40;5.07;;;6.60;99.90;;;;;;5050322;28;20182;-38
2020/12/13 12:25:12;;;;;;;13.93;5.22;;;6.60;99.90;;;;;;5049067;28;20494;-36
2020/12/13 12:27:38;;;;;;;13.90;4.68;;;6.60;99.90;;;;;;5071520;28;20024;-39
2020/12/13 12:30:07;;;;;;;20.75;4.65;;;6.70;99.90;;;;;;5073463;28;20504;-38
2020/12/13 12:32:34;;;;;;;28.23;5.13;;;6.60;99.90;;;;;;5071592;28;20027;-37
2020/12/13 12:35:00;;;;;;;17.52;4.53;;;6.60;99.90;;;;;;5053749;28;20028;-36
2020/12/13 12:37:26;;;;;;;13.27;5.30;;;6.60;99.90;;;;;;5071582;28;20059;-38
2020/12/13 12:39:52;;;;;;;17.42;5.00;;;6.60;99.90;;;;;;5057152;28;20048;-37
2020/12/13 12:42:18;;;;;;;15.25;5.03;;;6.60;99.90;;;;;;5071432;28;20067;-38
2020/12/13 12:44:45;;;;;;;17.42;5.03;;;6.50;99.90;;;;;;5054709;28;20037;-37
2020/12/13 12:47:12;;;;;;;15.68;4.22;;;6.50;99.90;;;;;;5055310;28;20342;-36
2020/12/13 12:49:38;;;;;;;17.88;5.47;;;6.60;99.90;;;;;;5039229;28;20059;-37
2020/12/13 12:52:05;;;;;;;19.27;5.35;;;6.50;99.90;;;;;;5059348;28;20032;-37
2020/12/13 12:54:31;;;;;;;17.40;5.40;;;6.50;99.90;;;;;;5071966;28;20038;-37
2020/12/13 12:56:57;;;;;;;17.10;5.30;;;6.50;99.90;;;;;;5077860;28;20024;-36
2020/12/13 12:59:36;;;;;;;16.13;5.05;;;6.60;99.90;;;;;;5061204;28;20040;-37
2020/12/13 13:02:03;;;;;;;13.25;4.82;;;6.60;99.90;;;;;;5072842;28;20043;-37
2020/12/13 13:04:38;;;;;;;16.85;4.45;;;6.60;99.90;;;;;;5073250;28;20032;-38
2020/12/13 13:12:02;;;;;;;13.50;4.75;;;6.50;99.90;;;;;;5084707;28;20043;-36
2020/12/13 13:14:32;;;;;;;16.98;5.07;;;6.50;99.90;;;;;;5054743;28;20020;-37
2020/12/13 13:17:05;;;;;;;17.88;5.68;;;6.50;99.90;;;;;;5084991;28;20074;-37
2020/12/13 13:19:32;;;;;;;14.68;5.47;;;6.50;99.90;;;;;;5061781;28;20037;-37
2020/12/13 13:22:01;;;;;;;16.25;5.70;;;6.60;99.90;;;;;;5040979;28;20132;-37
2020/12/13 13:24:26;;;;;;;18.75;4.47;;;6.60;99.90;;;;;;5045916;28;20044;-37
2020/12/13 13:26:53;;;;;;;14.10;4.97;;;6.60;99.90;;;;;;5068720;28;20032;-37
2020/12/13 13:29:19;;;;;;;22.50;3.78;;;6.60;99.90;;;;;;5079939;28;20388;-37
2020/12/13 13:31:44;;;;;;;17.50;4.55;;;6.60;99.90;;;;;;5067590;28;20032;-37
2020/12/13 13:34:10;;;;;;;14.57;4.28;;;6.60;99.90;;;;;;5082823;28;20405;-37
2020/12/13 13:36:37;;;;;;;17.75;5.00;;;6.60;99.90;;;;;;5077422;28;20032;-37
2020/12/13 13:39:03;;;;;;;18.83;4.13;;;6.80;99.90;;;;;;5071753;28;20032;-36
2020/12/13 13:41:32;;;;;;;7.05;3.85;;;6.80;99.90;;;;;;5071035;28;20508;-37
2020/12/13 13:44:00;;;;;;;6.78;2.15;;;6.70;99.90;;;;;;5047318;28;20056;-37
2020/12/13 13:51:36;;;;;;;18.75;5.18;;;6.70;99.90;;;;;;5070857;28;20033;-36
2020/12/13 13:54:06;;;;;;;13.50;5.13;;;6.70;99.90;;;;;;5069963;28;20028;-37
2020/12/13 13:56:40;;;;;;;13.38;4.68;;;6.70;99.90;;;;;;5074915;28;20025;-37